sensor_id;sensor_type;location;lat;lon;timestamp;temperature;humidity
70244;DHT22;57634;51.136;17.024;2022-09-09T00:00:15;18.20;82.00
70244;DHT22;57634;51.136;17.024;2022-09-09T00:03:27;18.10;82.10
70244;DHT22;57634;51.136;17.024;2022-09-09T00:13:37;18.00;82.50
70244;DHT22;57634;51.136;17.024;2022-09-09T00:16:41;18.00;82.70
70244;DHT22;57634;51.136;17.024;2022-09-09T00:19:54;18.00;82.70
70244;DHT22;57634;51.136;17.024;2022-09-09T00:23:10;18.00;82.80
70244;DHT22;57634;51.136;17.024;2022-09-09T00:26:45;17.90;82.70
70244;DHT22;57634;51.136;17.024;2022-09-09T00:29:56;17.90;82.90
70244;DHT22;57634;51.136;17.024;2022-09-09T00:33:09;17.90;83.10
70244;DHT22;57634;51.136;17.024;2022-09-09T00:36:22;17.90;83.00
70244;DHT22;57634;51.136;17.024;2022-09-09T00:49:50;17.70;82.90
70244;DHT22;57634;51.136;17.024;2022-09-09T00:56:41;17.70;82.60
70244;DHT22;57634;51.136;17.024;2022-09-09T00:59:48;17.70;82.70
70244;DHT22;57634;51.136;17.024;2022-09-09T01:06:14;17.60;82.60
70244;DHT22;57634;51.136;17.024;2022-09-09T01:09:38;17.60;82.50
70244;DHT22;57634;51.136;17.024;2022-09-09T01:12:58;17.50;82.50
70244;DHT22;57634;51.136;17.024;2022-09-09T01:16:04;17.50;82.60
70244;DHT22;57634;51.136;17.024;2022-09-09T01:19:13;17.50;82.60
70244;DHT22;57634;51.136;17.024;2022-09-09T01:29:18;17.40;82.70
70244;DHT22;57634;51.136;17.024;2022-09-09T01:38:48;17.30;82.80
70244;DHT22;57634;51.136;17.024;2022-09-09T01:41:52;17.20;82.70
70244;DHT22;57634;51.136;17.024;2022-09-09T01:44:53;17.20;82.80
70244;DHT22;57634;51.136;17.024;2022-09-09T01:48:23;17.20;82.90
70244;DHT22;57634;51.136;17.024;2022-09-09T01:51:25;17.20;83.00
70244;DHT22;57634;51.136;17.024;2022-09-09T01:54:29;17.20;83.00
70244;DHT22;57634;51.136;17.024;2022-09-09T02:01:05;17.10;83.00
70244;DHT22;57634;51.136;17.024;2022-09-09T02:07:48;17.10;83.10
70244;DHT22;57634;51.136;17.024;2022-09-09T02:10:56;17.10;83.30
70244;DHT22;57634;51.136;17.024;2022-09-09T02:14:08;17.10;83.30
70244;DHT22;57634;51.136;17.024;2022-09-09T02:17:14;17.00;83.30
70244;DHT22;57634;51.136;17.024;2022-09-09T02:20:18;17.00;83.30
70244;DHT22;57634;51.136;17.024;2022-09-09T02:23:20;17.00;83.30
70244;DHT22;57634;51.136;17.024;2022-09-09T02:26:23;17.00;83.30
70244;DHT22;57634;51.136;17.024;2022-09-09T02:29:53;16.90;83.30
70244;DHT22;57634;51.136;17.024;2022-09-09T02:32:58;16.90;83.40
70244;DHT22;57634;51.136;17.024;2022-09-09T02:36:01;16.90;83.40
70244;DHT22;57634;51.136;17.024;2022-09-09T02:39:08;16.80;83.50
70244;DHT22;57634;51.136;17.024;2022-09-09T02:42:10;16.80;83.50
70244;DHT22;57634;51.136;17.024;2022-09-09T02:45:18;16.80;83.40
70244;DHT22;57634;51.136;17.024;2022-09-09T02:48:30;16.80;83.50
70244;DHT22;57634;51.136;17.024;2022-09-09T02:52:04;16.80;83.50
70244;DHT22;57634;51.136;17.024;2022-09-09T02:55:17;16.80;83.60
70244;DHT22;57634;51.136;17.024;2022-09-09T02:58:19;16.80;83.70
70244;DHT22;57634;51.136;17.024;2022-09-09T03:01:21;16.80;83.60
70244;DHT22;57634;51.136;17.024;2022-09-09T03:04:22;16.80;83.70
70244;DHT22;57634;51.136;17.024;2022-09-09T03:07:25;16.80;83.60
70244;DHT22;57634;51.136;17.024;2022-09-09T03:10:28;16.70;83.50
70244;DHT22;57634;51.136;17.024;2022-09-09T03:13:29;16.70;83.60
70244;DHT22;57634;51.136;17.024;2022-09-09T03:16:31;16.70;83.50
70244;DHT22;57634;51.136;17.024;2022-09-09T03:20:03;16.70;83.60
70244;DHT22;57634;51.136;17.024;2022-09-09T03:23:05;16.60;83.60
70244;DHT22;57634;51.136;17.024;2022-09-09T03:26:07;16.60;83.70
70244;DHT22;57634;51.136;17.024;2022-09-09T03:29:09;16.60;83.80
70244;DHT22;57634;51.136;17.024;2022-09-09T03:32:10;16.60;83.80
70244;DHT22;57634;51.136;17.024;2022-09-09T03:35:11;16.60;83.80
70244;DHT22;57634;51.136;17.024;2022-09-09T03:38:12;16.60;83.80
70244;DHT22;57634;51.136;17.024;2022-09-09T03:41:14;16.60;83.90
70244;DHT22;57634;51.136;17.024;2022-09-09T03:44:15;16.60;83.90
70244;DHT22;57634;51.136;17.024;2022-09-09T03:47:18;16.60;83.90
70244;DHT22;57634;51.136;17.024;2022-09-09T03:50:19;16.60;83.90
70244;DHT22;57634;51.136;17.024;2022-09-09T03:53:23;16.60;84.00
70244;DHT22;57634;51.136;17.024;2022-09-09T03:56:25;16.60;83.90
70244;DHT22;57634;51.136;17.024;2022-09-09T03:59:55;16.60;83.90
70244;DHT22;57634;51.136;17.024;2022-09-09T04:02:56;16.60;84.00
70244;DHT22;57634;51.136;17.024;2022-09-09T04:06:00;16.60;83.90
70244;DHT22;57634;51.136;17.024;2022-09-09T04:09:03;16.60;84.00
70244;DHT22;57634;51.136;17.024;2022-09-09T04:12:05;16.60;84.00
70244;DHT22;57634;51.136;17.024;2022-09-09T04:15:07;16.60;84.00
70244;DHT22;57634;51.136;17.024;2022-09-09T04:18:09;16.60;83.90
70244;DHT22;57634;51.136;17.024;2022-09-09T04:21:11;16.60;83.90
70244;DHT22;57634;51.136;17.024;2022-09-09T04:24:13;16.60;83.90
70244;DHT22;57634;51.136;17.024;2022-09-09T04:27:16;16.60;83.80
70244;DHT22;57634;51.136;17.024;2022-09-09T04:30:18;16.60;83.80
70244;DHT22;57634;51.136;17.024;2022-09-09T04:33:19;16.60;83.80
70244;DHT22;57634;51.136;17.024;2022-09-09T04:36:48;16.60;83.80
70244;DHT22;57634;51.136;17.024;2022-09-09T04:39:50;16.80;85.10
70244;DHT22;57634;51.136;17.024;2022-09-09T04:42:51;17.20;85.40
70244;DHT22;57634;51.136;17.024;2022-09-09T04:45:53;17.70;84.80
70244;DHT22;57634;51.136;17.024;2022-09-09T04:48:54;18.30;83.80
70244;DHT22;57634;51.136;17.024;2022-09-09T04:51:56;19.00;82.20
70244;DHT22;57634;51.136;17.024;2022-09-09T04:54:57;19.90;80.00
70244;DHT22;57634;51.136;17.024;2022-09-09T04:58:04;20.90;77.40
70244;DHT22;57634;51.136;17.024;2022-09-09T05:01:12;21.80;74.20
70244;DHT22;57634;51.136;17.024;2022-09-09T05:04:14;22.90;71.40
70244;DHT22;57634;51.136;17.024;2022-09-09T05:07:17;23.80;68.40
70244;DHT22;57634;51.136;17.024;2022-09-09T05:10:45;24.80;65.30
70244;DHT22;57634;51.136;17.024;2022-09-09T05:13:46;25.90;61.40
70244;DHT22;57634;51.136;17.024;2022-09-09T05:16:47;26.70;58.10
70244;DHT22;57634;51.136;17.024;2022-09-09T05:19:51;27.40;55.40
70244;DHT22;57634;51.136;17.024;2022-09-09T05:22:56;28.00;53.10
70244;DHT22;57634;51.136;17.024;2022-09-09T05:25:58;28.50;51.40
70244;DHT22;57634;51.136;17.024;2022-09-09T05:28:59;29.00;50.30
70244;DHT22;57634;51.136;17.024;2022-09-09T05:32:02;29.30;48.40
70244;DHT22;57634;51.136;17.024;2022-09-09T05:35:04;29.60;47.20
70244;DHT22;57634;51.136;17.024;2022-09-09T05:38:06;29.80;46.00
70244;DHT22;57634;51.136;17.024;2022-09-09T05:41:10;29.90;45.40
70244;DHT22;57634;51.136;17.024;2022-09-09T05:44:12;29.90;44.90
70244;DHT22;57634;51.136;17.024;2022-09-09T05:47:40;29.90;44.70
70244;DHT22;57634;51.136;17.024;2022-09-09T05:50:42;30.00;43.80
70244;DHT22;57634;51.136;17.024;2022-09-09T05:53:45;30.10;43.70
70244;DHT22;57634;51.136;17.024;2022-09-09T05:56:47;30.30;43.50
70244;DHT22;57634;51.136;17.024;2022-09-09T05:59:51;30.70;42.90
70244;DHT22;57634;51.136;17.024;2022-09-09T06:02:53;31.20;42.20
70244;DHT22;57634;51.136;17.024;2022-09-09T06:06:01;31.60;41.60
70244;DHT22;57634;51.136;17.024;2022-09-09T06:09:04;32.20;40.90
70244;DHT22;57634;51.136;17.024;2022-09-09T06:12:10;32.80;40.00
70244;DHT22;57634;51.136;17.024;2022-09-09T06:15:13;33.60;39.00
70244;DHT22;57634;51.136;17.024;2022-09-09T06:18:41;34.20;37.60
70244;DHT22;57634;51.136;17.024;2022-09-09T06:21:43;35.00;35.60
70244;DHT22;57634;51.136;17.024;2022-09-09T06:24:45;35.80;34.30
70244;DHT22;57634;51.136;17.024;2022-09-09T06:27:49;36.60;33.00
70244;DHT22;57634;51.136;17.024;2022-09-09T06:31:00;37.30;32.10
70244;DHT22;57634;51.136;17.024;2022-09-09T06:34:04;38.00;31.30
70244;DHT22;57634;51.136;17.024;2022-09-09T06:37:06;38.60;30.50
70244;DHT22;57634;51.136;17.024;2022-09-09T06:40:10;39.20;29.90
70244;DHT22;57634;51.136;17.024;2022-09-09T06:43:12;39.70;29.20
70244;DHT22;57634;51.136;17.024;2022-09-09T06:46:15;40.00;28.50
70244;DHT22;57634;51.136;17.024;2022-09-09T06:49:42;39.80;27.90
70244;DHT22;57634;51.136;17.024;2022-09-09T06:52:46;39.20;27.50
70244;DHT22;57634;51.136;17.024;2022-09-09T06:55:48;38.80;27.70
70244;DHT22;57634;51.136;17.024;2022-09-09T06:58:51;38.70;27.90
70244;DHT22;57634;51.136;17.024;2022-09-09T07:01:52;38.70;28.10
70244;DHT22;57634;51.136;17.024;2022-09-09T07:04:56;38.80;28.00
70244;DHT22;57634;51.136;17.024;2022-09-09T07:07:59;39.00;27.90
70244;DHT22;57634;51.136;17.024;2022-09-09T07:11:06;39.20;27.70
70244;DHT22;57634;51.136;17.024;2022-09-09T07:14:08;39.50;27.80
70244;DHT22;57634;51.136;17.024;2022-09-09T07:17:12;39.80;27.60
70244;DHT22;57634;51.136;17.024;2022-09-09T07:20:14;39.90;27.20
70244;DHT22;57634;51.136;17.024;2022-09-09T07:23:42;39.90;27.10
70244;DHT22;57634;51.136;17.024;2022-09-09T07:26:43;39.80;26.40
70244;DHT22;57634;51.136;17.024;2022-09-09T07:29:46;39.70;26.50
70244;DHT22;57634;51.136;17.024;2022-09-09T07:32:47;39.50;26.40
70244;DHT22;57634;51.136;17.024;2022-09-09T07:35:49;39.40;26.10
70244;DHT22;57634;51.136;17.024;2022-09-09T07:38:54;39.00;26.30
70244;DHT22;57634;51.136;17.024;2022-09-09T07:41:56;38.80;26.50
70244;DHT22;57634;51.136;17.024;2022-09-09T07:44:58;38.60;26.70
70244;DHT22;57634;51.136;17.024;2022-09-09T07:48:01;38.20;26.90
70244;DHT22;57634;51.136;17.024;2022-09-09T07:54:14;37.10;27.60
70244;DHT22;57634;51.136;17.024;2022-09-09T07:57:44;36.50;28.00
70244;DHT22;57634;51.136;17.024;2022-09-09T08:00:46;35.90;28.50
70244;DHT22;57634;51.136;17.024;2022-09-09T08:07:02;34.50;30.00
70244;DHT22;57634;51.136;17.024;2022-09-09T08:10:04;34.00;30.20
70244;DHT22;57634;51.136;17.024;2022-09-09T08:13:06;33.50;30.70
70244;DHT22;57634;51.136;17.024;2022-09-09T08:16:12;33.10;31.60
70244;DHT22;57634;51.136;17.024;2022-09-09T08:19:14;33.00;32.10
70244;DHT22;57634;51.136;17.024;2022-09-09T08:22:18;33.10;32.10
70244;DHT22;57634;51.136;17.024;2022-09-09T08:25:47;33.20;32.00
70244;DHT22;57634;51.136;17.024;2022-09-09T08:28:52;33.10;31.60
70244;DHT22;57634;51.136;17.024;2022-09-09T08:31:55;33.00;32.10
70244;DHT22;57634;51.136;17.024;2022-09-09T08:34:58;32.90;32.30
70244;DHT22;57634;51.136;17.024;2022-09-09T08:37:59;33.00;32.10
70244;DHT22;57634;51.136;17.024;2022-09-09T08:41:17;33.00;31.80
70244;DHT22;57634;51.136;17.024;2022-09-09T08:47:35;33.10;31.60
70244;DHT22;57634;51.136;17.024;2022-09-09T08:51:05;32.90;31.60
70244;DHT22;57634;51.136;17.024;2022-09-09T08:54:09;33.00;31.70
70244;DHT22;57634;51.136;17.024;2022-09-09T08:57:14;33.10;30.90
70244;DHT22;57634;51.136;17.024;2022-09-09T09:00:18;33.00;30.50
70244;DHT22;57634;51.136;17.024;2022-09-09T09:03:35;32.90;30.50
70244;DHT22;57634;51.136;17.024;2022-09-09T09:13:01;33.80;31.00
70244;DHT22;57634;51.136;17.024;2022-09-09T09:16:33;34.30;30.10
70244;DHT22;57634;51.136;17.024;2022-09-09T09:19:39;34.40;29.10
70244;DHT22;57634;51.136;17.024;2022-09-09T09:22:48;34.20;29.00
70244;DHT22;57634;51.136;17.024;2022-09-09T09:25:56;33.90;29.20
70244;DHT22;57634;51.136;17.024;2022-09-09T09:29:09;33.60;29.60
70244;DHT22;57634;51.136;17.024;2022-09-09T09:32:14;33.30;29.80
70244;DHT22;57634;51.136;17.024;2022-09-09T09:35:17;32.90;30.30
70244;DHT22;57634;51.136;17.024;2022-09-09T09:38:54;32.70;30.80
70244;DHT22;57634;51.136;17.024;2022-09-09T09:41:57;32.40;30.90
70244;DHT22;57634;51.136;17.024;2022-09-09T09:45:14;32.10;31.30
70244;DHT22;57634;51.136;17.024;2022-09-09T09:48:15;31.80;31.60
70244;DHT22;57634;51.136;17.024;2022-09-09T09:51:17;31.50;31.90
70244;DHT22;57634;51.136;17.024;2022-09-09T09:54:27;31.30;32.40
70244;DHT22;57634;51.136;17.024;2022-09-09T09:58:05;31.10;32.80
70244;DHT22;57634;51.136;17.024;2022-09-09T10:04:22;30.70;33.60
70244;DHT22;57634;51.136;17.024;2022-09-09T10:07:27;30.50;34.10
70244;DHT22;57634;51.136;17.024;2022-09-09T10:14:24;30.40;34.00
70244;DHT22;57634;51.136;17.024;2022-09-09T10:31:00;29.40;34.90
70244;DHT22;57634;51.136;17.024;2022-09-09T10:34:15;29.50;35.20
70244;DHT22;57634;51.136;17.024;2022-09-09T10:37:23;29.80;35.00
70244;DHT22;57634;51.136;17.024;2022-09-09T10:41:01;29.80;34.50
70244;DHT22;57634;51.136;17.024;2022-09-09T10:47:34;30.00;34.40
70244;DHT22;57634;51.136;17.024;2022-09-09T10:54:30;29.80;34.30
70244;DHT22;57634;51.136;17.024;2022-09-09T10:57:39;29.70;34.60
70244;DHT22;57634;51.136;17.024;2022-09-09T11:00:44;29.70;34.40
70244;DHT22;57634;51.136;17.024;2022-09-09T11:07:02;29.60;34.40
70244;DHT22;57634;51.136;17.024;2022-09-09T11:14:00;29.50;34.80
70244;DHT22;57634;51.136;17.024;2022-09-09T11:17:10;29.60;34.60
70244;DHT22;57634;51.136;17.024;2022-09-09T11:20:14;29.50;34.10
70244;DHT22;57634;51.136;17.024;2022-09-09T11:23:23;29.40;34.30
70244;DHT22;57634;51.136;17.024;2022-09-09T11:26:55;29.40;34.90
70244;DHT22;57634;51.136;17.024;2022-09-09T11:36:43;29.40;34.40
70244;DHT22;57634;51.136;17.024;2022-09-09T11:40:18;29.10;34.20
70244;DHT22;57634;51.136;17.024;2022-09-09T11:43:31;28.80;34.60
70244;DHT22;57634;51.136;17.024;2022-09-09T11:46:37;28.70;35.00
70244;DHT22;57634;51.136;17.024;2022-09-09T11:49:41;28.70;34.80
70244;DHT22;57634;51.136;17.024;2022-09-09T11:52:45;28.70;35.00
70244;DHT22;57634;51.136;17.024;2022-09-09T11:55:59;28.70;35.50
70244;DHT22;57634;51.136;17.024;2022-09-09T11:59:23;28.60;35.60
70244;DHT22;57634;51.136;17.024;2022-09-09T12:02:28;28.50;35.80
70244;DHT22;57634;51.136;17.024;2022-09-09T12:05:40;28.40;35.80
70244;DHT22;57634;51.136;17.024;2022-09-09T12:08:46;28.50;35.80
70244;DHT22;57634;51.136;17.024;2022-09-09T12:11:48;28.50;36.00
70244;DHT22;57634;51.136;17.024;2022-09-09T12:14:57;28.40;36.00
70244;DHT22;57634;51.136;17.024;2022-09-09T12:18:00;28.30;35.70
70244;DHT22;57634;51.136;17.024;2022-09-09T12:21:40;28.20;35.90
70244;DHT22;57634;51.136;17.024;2022-09-09T12:31:18;27.90;36.00
70244;DHT22;57634;51.136;17.024;2022-09-09T12:38:01;28.00;36.00
70244;DHT22;57634;51.136;17.024;2022-09-09T12:41:03;28.10;36.50
70244;DHT22;57634;51.136;17.024;2022-09-09T12:44:08;28.00;36.70
70244;DHT22;57634;51.136;17.024;2022-09-09T12:47:11;28.00;37.00
70244;DHT22;57634;51.136;17.024;2022-09-09T12:50:22;27.90;36.90
70244;DHT22;57634;51.136;17.024;2022-09-09T12:57:04;27.90;37.50
70244;DHT22;57634;51.136;17.024;2022-09-09T13:00:14;28.00;38.10
70244;DHT22;57634;51.136;17.024;2022-09-09T13:03:18;28.10;37.90
70244;DHT22;57634;51.136;17.024;2022-09-09T13:06:29;28.20;37.70
70244;DHT22;57634;51.136;17.024;2022-09-09T13:09:31;28.30;37.60
70244;DHT22;57634;51.136;17.024;2022-09-09T13:12:33;28.20;37.20
70244;DHT22;57634;51.136;17.024;2022-09-09T13:15:34;28.00;37.20
70244;DHT22;57634;51.136;17.024;2022-09-09T13:18:39;28.00;37.50
70244;DHT22;57634;51.136;17.024;2022-09-09T13:22:20;27.90;37.40
70244;DHT22;57634;51.136;17.024;2022-09-09T13:25:25;27.90;37.70
70244;DHT22;57634;51.136;17.024;2022-09-09T13:28:29;27.90;37.90
70244;DHT22;57634;51.136;17.024;2022-09-09T13:31:36;27.90;38.10
70244;DHT22;57634;51.136;17.024;2022-09-09T13:34:37;27.90;38.00
70244;DHT22;57634;51.136;17.024;2022-09-09T13:37:39;27.80;38.00
70244;DHT22;57634;51.136;17.024;2022-09-09T13:44:26;27.60;38.00
70244;DHT22;57634;51.136;17.024;2022-09-09T13:47:32;27.40;38.20
70244;DHT22;57634;51.136;17.024;2022-09-09T13:50:35;27.30;38.30
70244;DHT22;57634;51.136;17.024;2022-09-09T13:53:36;27.20;38.50
70244;DHT22;57634;51.136;17.024;2022-09-09T13:56:38;27.20;38.70
70244;DHT22;57634;51.136;17.024;2022-09-09T13:59:41;27.20;38.30
70244;DHT22;57634;51.136;17.024;2022-09-09T14:02:42;27.20;38.00
70244;DHT22;57634;51.136;17.024;2022-09-09T14:05:45;27.20;38.20
70244;DHT22;57634;51.136;17.024;2022-09-09T14:08:49;27.00;38.10
70244;DHT22;57634;51.136;17.024;2022-09-09T14:11:51;26.80;38.10
70244;DHT22;57634;51.136;17.024;2022-09-09T14:14:52;26.70;38.20
70244;DHT22;57634;51.136;17.024;2022-09-09T14:18:20;26.60;38.40
70244;DHT22;57634;51.136;17.024;2022-09-09T14:21:25;26.50;38.90
70244;DHT22;57634;51.136;17.024;2022-09-09T14:24:26;26.40;39.50
70244;DHT22;57634;51.136;17.024;2022-09-09T14:27:28;26.20;40.10
70244;DHT22;57634;51.136;17.024;2022-09-09T14:30:30;26.00;40.90
70244;DHT22;57634;51.136;17.024;2022-09-09T14:33:32;25.90;41.20
70244;DHT22;57634;51.136;17.024;2022-09-09T14:36:35;25.80;41.70
70244;DHT22;57634;51.136;17.024;2022-09-09T14:39:36;25.60;42.10
70244;DHT22;57634;51.136;17.024;2022-09-09T14:42:37;25.50;42.50
70244;DHT22;57634;51.136;17.024;2022-09-09T14:45:38;25.50;42.30
70244;DHT22;57634;51.136;17.024;2022-09-09T14:48:40;25.40;42.50
70244;DHT22;57634;51.136;17.024;2022-09-09T14:51:42;25.20;42.70
70244;DHT22;57634;51.136;17.024;2022-09-09T14:54:43;25.10;43.00
70244;DHT22;57634;51.136;17.024;2022-09-09T14:58:11;25.00;43.70
70244;DHT22;57634;51.136;17.024;2022-09-09T15:01:15;25.00;44.20
70244;DHT22;57634;51.136;17.024;2022-09-09T15:04:17;24.90;44.30
70244;DHT22;57634;51.136;17.024;2022-09-09T15:07:20;24.90;44.70
70244;DHT22;57634;51.136;17.024;2022-09-09T15:10:22;25.00;44.80
70244;DHT22;57634;51.136;17.024;2022-09-09T15:13:23;25.00;44.80
70244;DHT22;57634;51.136;17.024;2022-09-09T15:16:27;25.00;44.70
70244;DHT22;57634;51.136;17.024;2022-09-09T15:19:29;24.90;44.80
70244;DHT22;57634;51.136;17.024;2022-09-09T15:22:32;24.80;44.70
70244;DHT22;57634;51.136;17.024;2022-09-09T15:25:36;24.80;44.80
70244;DHT22;57634;51.136;17.024;2022-09-09T15:28:38;24.70;44.90
70244;DHT22;57634;51.136;17.024;2022-09-09T15:31:39;24.60;45.20
70244;DHT22;57634;51.136;17.024;2022-09-09T15:35:07;24.50;45.50
70244;DHT22;57634;51.136;17.024;2022-09-09T15:38:08;24.50;46.20
70244;DHT22;57634;51.136;17.024;2022-09-09T15:41:11;24.40;46.60
70244;DHT22;57634;51.136;17.024;2022-09-09T15:44:13;24.30;46.60
70244;DHT22;57634;51.136;17.024;2022-09-09T15:47:17;24.30;46.70
70244;DHT22;57634;51.136;17.024;2022-09-09T15:50:18;24.40;46.80
70244;DHT22;57634;51.136;17.024;2022-09-09T15:53:20;24.30;46.90
70244;DHT22;57634;51.136;17.024;2022-09-09T15:56:21;24.20;47.00
70244;DHT22;57634;51.136;17.024;2022-09-09T15:59:23;24.20;47.20
70244;DHT22;57634;51.136;17.024;2022-09-09T16:02:25;24.20;47.40
70244;DHT22;57634;51.136;17.024;2022-09-09T16:05:26;24.10;47.50
70244;DHT22;57634;51.136;17.024;2022-09-09T16:10:43;24.00;47.60
70244;DHT22;57634;51.136;17.024;2022-09-09T16:13:48;23.90;47.90
70244;DHT22;57634;51.136;17.024;2022-09-09T16:16:49;23.90;48.30
70244;DHT22;57634;51.136;17.024;2022-09-09T16:19:51;23.80;48.50
70244;DHT22;57634;51.136;17.024;2022-09-09T16:22:55;23.80;48.70
70244;DHT22;57634;51.136;17.024;2022-09-09T16:25:58;23.70;48.80
70244;DHT22;57634;51.136;17.024;2022-09-09T16:29:00;23.60;48.90
70244;DHT22;57634;51.136;17.024;2022-09-09T16:32:03;23.60;49.10
70244;DHT22;57634;51.136;17.024;2022-09-09T16:35:05;23.60;49.20
70244;DHT22;57634;51.136;17.024;2022-09-09T16:38:08;23.50;49.40
70244;DHT22;57634;51.136;17.024;2022-09-09T16:41:10;23.40;49.70
70244;DHT22;57634;51.136;17.024;2022-09-09T16:44:39;23.40;49.90
70244;DHT22;57634;51.136;17.024;2022-09-09T16:47:40;23.30;50.30
70244;DHT22;57634;51.136;17.024;2022-09-09T16:50:41;23.30;50.50
70244;DHT22;57634;51.136;17.024;2022-09-09T16:53:43;23.20;50.70
70244;DHT22;57634;51.136;17.024;2022-09-09T16:56:46;23.20;50.80
70244;DHT22;57634;51.136;17.024;2022-09-09T16:59:48;23.20;50.80
70244;DHT22;57634;51.136;17.024;2022-09-09T17:02:51;23.10;50.90
70244;DHT22;57634;51.136;17.024;2022-09-09T17:05:52;23.10;51.10
70244;DHT22;57634;51.136;17.024;2022-09-09T17:09:02;23.10;51.10
70244;DHT22;57634;51.136;17.024;2022-09-09T17:12:04;23.00;51.10
70244;DHT22;57634;51.136;17.024;2022-09-09T17:15:07;23.00;51.40
70244;DHT22;57634;51.136;17.024;2022-09-09T17:18:36;23.00;51.40
70244;DHT22;57634;51.136;17.024;2022-09-09T17:21:39;22.90;51.90
70244;DHT22;57634;51.136;17.024;2022-09-09T17:24:40;22.90;51.90
70244;DHT22;57634;51.136;17.024;2022-09-09T17:27:42;22.80;52.00
70244;DHT22;57634;51.136;17.024;2022-09-09T17:30:44;22.80;52.10
70244;DHT22;57634;51.136;17.024;2022-09-09T17:33:50;22.70;52.30
70244;DHT22;57634;51.136;17.024;2022-09-09T17:36:53;22.60;52.60
70244;DHT22;57634;51.136;17.024;2022-09-09T17:39:55;22.60;53.00
70244;DHT22;57634;51.136;17.024;2022-09-09T17:42:59;22.50;53.30
70244;DHT22;57634;51.136;17.024;2022-09-09T17:46:09;22.50;53.60
70244;DHT22;57634;51.136;17.024;2022-09-09T17:49:36;22.40;54.00
70244;DHT22;57634;51.136;17.024;2022-09-09T17:52:39;22.40;54.70
70244;DHT22;57634;51.136;17.024;2022-09-09T17:55:41;22.40;55.20
70244;DHT22;57634;51.136;17.024;2022-09-09T17:58:44;22.30;55.60
70244;DHT22;57634;51.136;17.024;2022-09-09T18:01:47;22.30;55.80
70244;DHT22;57634;51.136;17.024;2022-09-09T18:04:51;22.20;56.10
70244;DHT22;57634;51.136;17.024;2022-09-09T18:07:52;22.20;56.30
70244;DHT22;57634;51.136;17.024;2022-09-09T18:10:53;22.10;56.50
70244;DHT22;57634;51.136;17.024;2022-09-09T18:14:02;22.10;56.70
70244;DHT22;57634;51.136;17.024;2022-09-09T18:17:03;22.10;56.90
70244;DHT22;57634;51.136;17.024;2022-09-09T18:20:05;22.00;57.20
70244;DHT22;57634;51.136;17.024;2022-09-09T18:23:34;22.00;57.50
70244;DHT22;57634;51.136;17.024;2022-09-09T18:26:38;22.00;57.80
70244;DHT22;57634;51.136;17.024;2022-09-09T18:29:40;21.90;58.00
70244;DHT22;57634;51.136;17.024;2022-09-09T18:32:41;21.90;58.10
70244;DHT22;57634;51.136;17.024;2022-09-09T18:35:42;21.90;58.30
70244;DHT22;57634;51.136;17.024;2022-09-09T18:38:44;21.80;58.50
70244;DHT22;57634;51.136;17.024;2022-09-09T18:41:48;21.80;58.60
70244;DHT22;57634;51.136;17.024;2022-09-09T18:44:51;21.80;58.70
70244;DHT22;57634;51.136;17.024;2022-09-09T18:47:52;21.80;58.90
70244;DHT22;57634;51.136;17.024;2022-09-09T18:50:54;21.70;59.00
70244;DHT22;57634;51.136;17.024;2022-09-09T18:54:04;21.60;59.40
70244;DHT22;57634;51.136;17.024;2022-09-09T18:57:33;21.60;59.60
70244;DHT22;57634;51.136;17.024;2022-09-09T19:00:35;21.60;60.10
70244;DHT22;57634;51.136;17.024;2022-09-09T19:03:37;21.50;60.30
70244;DHT22;57634;51.136;17.024;2022-09-09T19:06:41;21.50;60.60
70244;DHT22;57634;51.136;17.024;2022-09-09T19:09:42;21.50;60.80
70244;DHT22;57634;51.136;17.024;2022-09-09T19:12:44;21.50;60.90
70244;DHT22;57634;51.136;17.024;2022-09-09T19:15:45;21.50;60.90
70244;DHT22;57634;51.136;17.024;2022-09-09T19:18:47;21.50;61.00
70244;DHT22;57634;51.136;17.024;2022-09-09T19:21:49;21.50;61.00
70244;DHT22;57634;51.136;17.024;2022-09-09T19:24:51;21.50;61.00
70244;DHT22;57634;51.136;17.024;2022-09-09T19:27:53;21.50;61.10
70244;DHT22;57634;51.136;17.024;2022-09-09T19:30:54;21.50;61.10
70244;DHT22;57634;51.136;17.024;2022-09-09T19:33:56;21.40;61.20
70244;DHT22;57634;51.136;17.024;2022-09-09T19:37:23;21.40;61.30
70244;DHT22;57634;51.136;17.024;2022-09-09T19:40:25;21.40;61.60
70244;DHT22;57634;51.136;17.024;2022-09-09T19:43:27;21.40;61.80
70244;DHT22;57634;51.136;17.024;2022-09-09T19:46:31;21.30;61.80
70244;DHT22;57634;51.136;17.024;2022-09-09T19:49:33;21.30;62.00
70244;DHT22;57634;51.136;17.024;2022-09-09T19:52:36;21.30;62.10
70244;DHT22;57634;51.136;17.024;2022-09-09T19:55:39;21.20;62.20
70244;DHT22;57634;51.136;17.024;2022-09-09T19:58:40;21.20;62.50
70244;DHT22;57634;51.136;17.024;2022-09-09T20:01:45;21.20;62.60
70244;DHT22;57634;51.136;17.024;2022-09-09T20:04:47;21.20;62.80
70244;DHT22;57634;51.136;17.024;2022-09-09T20:07:48;21.20;62.90
70244;DHT22;57634;51.136;17.024;2022-09-09T20:10:51;21.20;62.90
70244;DHT22;57634;51.136;17.024;2022-09-09T20:14:18;21.20;62.70
70244;DHT22;57634;51.136;17.024;2022-09-09T20:17:20;21.30;62.70
70244;DHT22;57634;51.136;17.024;2022-09-09T20:20:21;21.20;62.80
70244;DHT22;57634;51.136;17.024;2022-09-09T20:23:22;21.20;62.80
70244;DHT22;57634;51.136;17.024;2022-09-09T20:26:24;21.30;62.80
70244;DHT22;57634;51.136;17.024;2022-09-09T20:29:28;21.30;62.90
70244;DHT22;57634;51.136;17.024;2022-09-09T20:32:29;21.40;63.00
70244;DHT22;57634;51.136;17.024;2022-09-09T20:35:30;21.50;62.90
70244;DHT22;57634;51.136;17.024;2022-09-09T20:38:33;21.50;62.80
70244;DHT22;57634;51.136;17.024;2022-09-09T20:41:35;21.60;62.80
70244;DHT22;57634;51.136;17.024;2022-09-09T20:44:37;21.60;62.80
70244;DHT22;57634;51.136;17.024;2022-09-09T20:47:38;21.60;62.80
70244;DHT22;57634;51.136;17.024;2022-09-09T20:50:39;21.60;62.70
70244;DHT22;57634;51.136;17.024;2022-09-09T20:54:11;21.60;62.70
70244;DHT22;57634;51.136;17.024;2022-09-09T20:57:14;21.60;62.80
70244;DHT22;57634;51.136;17.024;2022-09-09T21:00:21;21.60;63.00
70244;DHT22;57634;51.136;17.024;2022-09-09T21:03:24;21.60;63.00
70244;DHT22;57634;51.136;17.024;2022-09-09T21:06:26;21.60;62.70
70244;DHT22;57634;51.136;17.024;2022-09-09T21:09:27;21.50;62.30
70244;DHT22;57634;51.136;17.024;2022-09-09T21:12:28;21.50;61.90
70244;DHT22;57634;51.136;17.024;2022-09-09T21:15:30;21.50;61.90
70244;DHT22;57634;51.136;17.024;2022-09-09T21:18:32;21.40;61.80